createdAt,value
2023-03-22T00:00:19.035Z,3.70
2023-03-22T00:02:46.572Z,3.60
2023-03-22T00:05:13.927Z,4.00
2023-03-22T00:07:41.152Z,4.30
2023-03-22T00:10:08.742Z,3.70
2023-03-22T00:12:36.094Z,4.33
2023-03-22T00:15:03.449Z,3.30
2023-03-22T00:17:30.775Z,3.20
2023-03-22T00:19:58.901Z,3.57
2023-03-22T00:22:26.266Z,3.80
2023-03-22T00:24:53.534Z,3.57
2023-03-22T00:27:20.882Z,3.10
2023-03-22T00:29:48.088Z,3.13
2023-03-22T00:32:15.798Z,2.60
2023-03-22T00:34:43.090Z,2.47
2023-03-22T00:37:10.601Z,2.70
2023-03-22T00:39:38.306Z,4.17
2023-03-22T00:42:06.459Z,12.07
2023-03-22T00:44:33.783Z,13.17
2023-03-22T00:47:01.482Z,11.97
2023-03-22T00:49:29.512Z,11.63
2023-03-22T00:51:56.897Z,9.33
2023-03-22T00:54:24.166Z,5.93
2023-03-22T00:56:51.415Z,6.07
2023-03-22T00:59:18.833Z,8.73
2023-03-22T01:01:46.114Z,5.70
2023-03-22T01:04:18.245Z,5.67
2023-03-22T01:06:47.266Z,4.70
2023-03-22T01:09:15.366Z,2.60
2023-03-22T01:11:43.540Z,2.90
2023-03-22T01:14:13.967Z,3.27
2023-03-22T01:16:41.499Z,3.73
2023-03-22T01:19:10.147Z,2.50
2023-03-22T01:21:37.656Z,2.53
2023-03-22T01:24:05.059Z,4.13
2023-03-22T01:26:33.652Z,3.03
2023-03-22T01:29:00.968Z,2.73
2023-03-22T01:31:28.245Z,2.73
2023-03-22T01:33:56.749Z,2.70
2023-03-22T01:36:23.981Z,3.13
2023-03-22T01:38:51.213Z,3.47
2023-03-22T01:41:18.979Z,5.47
2023-03-22T01:43:46.338Z,4.20
2023-03-22T01:46:13.645Z,3.60
2023-03-22T01:48:48.648Z,8.57
2023-03-22T01:51:20.926Z,4.33
2023-03-22T01:53:53.534Z,3.63
2023-03-22T01:56:23.080Z,3.43
2023-03-22T01:58:51.013Z,4.20
2023-03-22T02:01:19.295Z,4.10
2023-03-22T02:04:07.193Z,3.43
2023-03-22T02:06:38.150Z,3.93
2023-03-22T02:09:06.798Z,3.57
2023-03-22T02:11:38.625Z,3.80
2023-03-22T02:14:27.492Z,5.17
2023-03-22T02:17:10.889Z,6.83
2023-03-22T02:19:45.591Z,3.80
2023-03-22T02:22:26.199Z,4.67
2023-03-22T02:25:08.791Z,4.50
2023-03-22T02:27:54.910Z,5.90
2023-03-22T02:30:25.309Z,4.60
2023-03-22T02:33:05.294Z,6.17
2023-03-22T02:35:38.635Z,5.77
2023-03-22T02:38:24.573Z,7.73
2023-03-22T02:40:57.755Z,7.30
2023-03-22T02:43:38.391Z,8.73
2023-03-22T02:46:16.200Z,8.27
2023-03-22T02:48:54.779Z,7.23
2023-03-22T02:51:24.008Z,6.37
2023-03-22T02:54:00.925Z,5.47
2023-03-22T02:56:46.969Z,5.03
2023-03-22T02:59:14.721Z,5.03
2023-03-22T03:01:44.964Z,5.17
2023-03-22T03:04:15.783Z,5.53
2023-03-22T03:06:47.671Z,5.60
2023-03-22T03:09:19.578Z,5.57
2023-03-22T03:11:51.786Z,3.20
2023-03-22T03:14:26.736Z,5.00
2023-03-22T03:17:06.561Z,3.57
2023-03-22T03:19:38.504Z,3.47
2023-03-22T03:22:10.063Z,2.93
2023-03-22T03:24:45.968Z,3.90
2023-03-22T03:27:23.806Z,4.07
2023-03-22T03:30:00.311Z,2.60
2023-03-22T03:32:38.459Z,3.63
2023-03-22T03:35:22.598Z,2.97
2023-03-22T03:38:08.820Z,4.20
2023-03-22T03:40:51.375Z,4.27
2023-03-22T03:43:19.402Z,3.30
2023-03-22T03:45:46.828Z,2.97
2023-03-22T03:48:24.586Z,4.13
2023-03-22T03:50:53.853Z,5.50
2023-03-22T03:53:21.178Z,4.23
2023-03-22T03:55:49.810Z,3.33
2023-03-22T03:58:17.104Z,4.47
2023-03-22T04:00:46.481Z,3.63
2023-03-22T04:03:14.602Z,2.77
2023-03-22T04:05:41.984Z,3.63
2023-03-22T04:08:09.341Z,4.53
2023-03-22T04:10:36.681Z,6.90
2023-03-22T04:13:04.040Z,4.77
2023-03-22T04:15:33.457Z,4.77
2023-03-22T04:18:00.861Z,4.20
2023-03-22T04:20:29.837Z,3.70
2023-03-22T04:22:58.193Z,4.20
2023-03-22T04:25:30.353Z,3.97
2023-03-22T04:28:00.600Z,4.37
2023-03-22T04:30:27.918Z,4.00
2023-03-22T04:33:00.435Z,3.93
2023-03-22T04:35:27.695Z,6.57
2023-03-22T04:37:55.000Z,2.90
2023-03-22T04:40:22.304Z,3.60
2023-03-22T04:42:49.547Z,3.57
2023-03-22T04:45:16.821Z,5.03
2023-03-22T04:47:44.321Z,3.60
2023-03-22T04:50:11.802Z,3.37
2023-03-22T04:52:39.019Z,5.23
2023-03-22T04:55:07.122Z,3.83
2023-03-22T04:57:35.810Z,4.57
2023-03-22T05:00:07.001Z,3.77
2023-03-22T05:02:34.403Z,3.70
2023-03-22T05:05:01.795Z,3.93
2023-03-22T05:07:29.442Z,4.43
2023-03-22T05:09:56.942Z,4.43
2023-03-22T05:12:24.489Z,4.80
2023-03-22T05:14:51.853Z,4.27
2023-03-22T05:17:19.196Z,3.33
2023-03-22T05:19:46.707Z,3.50
2023-03-22T05:22:14.083Z,3.20
2023-03-22T05:24:41.698Z,3.67
2023-03-22T05:27:10.984Z,5.17
2023-03-22T05:29:45.301Z,3.67
2023-03-22T05:32:12.782Z,5.40
2023-03-22T05:34:42.851Z,4.73
2023-03-22T05:37:10.339Z,4.87
2023-03-22T05:39:37.692Z,4.00
2023-03-22T05:42:05.027Z,4.33
2023-03-22T05:44:32.289Z,5.60
2023-03-22T05:46:59.822Z,4.83
2023-03-22T05:49:27.256Z,3.33
2023-03-22T05:51:54.818Z,8.63
2023-03-22T05:54:22.193Z,5.63
2023-03-22T05:56:49.507Z,8.00
2023-03-22T05:59:16.804Z,7.30
2023-03-22T06:01:44.720Z,6.83
2023-03-22T06:04:12.436Z,12.10
2023-03-22T06:06:39.758Z,7.63
2023-03-22T06:09:16.540Z,10.17
2023-03-22T06:11:44.500Z,6.30
2023-03-22T06:14:12.028Z,7.20
2023-03-22T06:16:39.359Z,4.50
2023-03-22T06:19:06.975Z,4.50
2023-03-22T06:21:34.192Z,9.37
2023-03-22T06:24:01.461Z,23.43
2023-03-22T06:26:28.754Z,26.83
2023-03-22T06:28:56.549Z,12.10
2023-03-22T06:31:23.959Z,9.80
2023-03-22T06:33:52.300Z,10.87
2023-03-22T06:36:21.206Z,12.90
2023-03-22T06:38:48.407Z,15.50
2023-03-22T06:41:15.896Z,12.73
2023-03-22T06:43:43.507Z,12.07
2023-03-22T06:46:10.948Z,6.57
2023-03-22T06:48:38.320Z,5.10
2023-03-22T06:51:05.888Z,3.40
2023-03-22T06:53:33.553Z,3.83
2023-03-22T06:56:01.061Z,4.50
2023-03-22T06:58:28.531Z,3.10
2023-03-22T07:00:56.961Z,2.70
2023-03-22T07:03:24.801Z,2.70
2023-03-22T07:05:52.149Z,2.90
2023-03-22T07:08:19.566Z,2.50
2023-03-22T07:10:50.628Z,2.80
2023-03-22T07:13:18.005Z,2.50
2023-03-22T07:15:45.772Z,3.80
2023-03-22T07:18:13.447Z,2.93
2023-03-22T07:20:42.231Z,1.93
2023-03-22T07:23:10.983Z,3.37
2023-03-22T07:25:38.376Z,2.40
2023-03-22T07:28:07.558Z,1.90
2023-03-22T07:30:37.720Z,2.63
2023-03-22T07:33:06.668Z,2.07
2023-03-22T07:35:34.058Z,2.53
2023-03-22T07:38:02.116Z,2.63
2023-03-22T07:40:29.563Z,1.90
2023-03-22T07:42:56.954Z,2.10
2023-03-22T07:45:24.298Z,1.80
2023-03-22T07:47:51.661Z,1.77
2023-03-22T07:50:19.482Z,1.67
2023-03-22T07:52:46.970Z,1.87
2023-03-22T07:55:15.410Z,2.77
2023-03-22T07:57:42.783Z,2.33
2023-03-22T08:00:10.832Z,2.87
2023-03-22T08:02:38.826Z,1.60
2023-03-22T08:05:07.463Z,1.90
2023-03-22T08:07:34.843Z,1.40
2023-03-22T08:10:02.242Z,1.00
2023-03-22T08:12:29.625Z,1.30
2023-03-22T08:14:56.914Z,1.43
2023-03-22T08:17:26.086Z,7.60
2023-03-22T08:19:56.759Z,14.03
2023-03-22T08:22:29.906Z,2.33
2023-03-22T08:24:57.222Z,8.07
2023-03-22T08:27:24.621Z,1.50
2023-03-22T08:29:51.846Z,7.47
2023-03-22T08:32:19.188Z,15.50
2023-03-22T08:34:46.691Z,10.20
2023-03-22T08:37:14.205Z,1.97
2023-03-22T08:39:41.591Z,3.50
2023-03-22T08:42:08.788Z,1.77
2023-03-22T08:44:36.862Z,1.93
2023-03-22T08:47:04.194Z,3.67
2023-03-22T08:49:31.630Z,3.70
2023-03-22T08:51:58.952Z,5.63
2023-03-22T08:54:28.175Z,1.73
2023-03-22T08:56:55.834Z,1.53
2023-03-22T08:59:23.210Z,1.43
2023-03-22T09:01:50.530Z,2.73
2023-03-22T09:04:17.857Z,2.77
2023-03-22T09:06:47.114Z,2.77
2023-03-22T09:09:14.749Z,1.40
2023-03-22T09:11:42.930Z,4.03
2023-03-22T09:14:11.032Z,3.40
2023-03-22T09:16:38.360Z,2.10
2023-03-22T09:19:06.595Z,1.60
2023-03-22T09:21:34.247Z,2.37
2023-03-22T09:24:01.517Z,3.07
2023-03-22T09:26:28.841Z,5.00
2023-03-22T09:28:56.140Z,2.00
2023-03-22T09:31:23.431Z,1.60
2023-03-22T09:33:50.737Z,1.67
2023-03-22T09:36:18.256Z,2.73
2023-03-22T09:38:46.635Z,6.00
2023-03-22T09:41:13.933Z,3.03
2023-03-22T09:43:44.460Z,2.60
2023-03-22T09:46:16.950Z,1.60
2023-03-22T09:48:46.628Z,2.40
2023-03-22T09:51:23.664Z,5.30
2023-03-22T09:53:51.112Z,1.50
2023-03-22T09:56:26.172Z,1.73
2023-03-22T09:59:16.073Z,2.27
2023-03-22T10:01:43.622Z,1.97
2023-03-22T10:04:10.995Z,2.93
2023-03-22T10:06:38.564Z,4.57
2023-03-22T10:09:06.009Z,2.03
2023-03-22T10:11:33.700Z,1.50
2023-03-22T10:14:04.160Z,1.57
2023-03-22T10:16:33.742Z,2.70
2023-03-22T10:19:06.547Z,1.30
2023-03-22T10:21:34.087Z,1.13
2023-03-22T10:24:04.192Z,2.30
2023-03-22T10:26:36.742Z,1.50
2023-03-22T10:29:06.089Z,4.90
2023-03-22T10:31:34.781Z,2.75
2023-03-22T10:34:22.649Z,1.92
2023-03-22T10:36:52.639Z,1.60
2023-03-22T10:39:27.409Z,1.50
2023-03-22T10:41:57.965Z,1.77
2023-03-22T10:44:25.957Z,1.00
2023-03-22T10:46:55.803Z,1.00
2023-03-22T10:49:26.367Z,1.55
2023-03-22T10:51:57.398Z,0.80
2023-03-22T10:54:26.186Z,0.77
2023-03-22T10:56:53.584Z,0.77
2023-03-22T10:59:42.551Z,1.10
2023-03-22T11:02:21.721Z,1.58
2023-03-22T11:04:54.050Z,1.13
2023-03-22T11:07:35.669Z,1.40
2023-03-22T11:10:09.087Z,0.70
2023-03-22T11:12:42.008Z,0.70
2023-03-22T11:15:21.265Z,1.50
2023-03-22T11:17:48.987Z,0.70
2023-03-22T11:20:17.388Z,0.90
2023-03-22T11:22:46.174Z,0.93
2023-03-22T11:25:18.847Z,1.13
2023-03-22T11:27:57.767Z,0.73
2023-03-22T11:30:27.281Z,0.85
2023-03-22T11:33:21.746Z,0.90
2023-03-22T11:35:54.731Z,1.55
2023-03-22T11:38:31.107Z,1.80
2023-03-22T11:41:01.109Z,1.85
2023-03-22T11:43:32.775Z,1.08
2023-03-22T11:46:01.204Z,1.33
2023-03-22T11:48:31.817Z,2.22
2023-03-22T11:51:18.923Z,0.85
2023-03-22T11:53:48.654Z,11.43
2023-03-22T11:56:22.786Z,2.58
2023-03-22T11:59:08.786Z,1.02
2023-03-22T12:01:52.977Z,0.90
2023-03-22T12:04:24.130Z,1.95
2023-03-22T12:06:53.905Z,1.65
2023-03-22T12:09:25.356Z,1.20
2023-03-22T12:12:00.482Z,1.00
2023-03-22T12:14:31.088Z,1.20
2023-03-22T12:16:58.300Z,1.08
2023-03-22T12:19:32.612Z,0.93
2023-03-22T12:22:00.677Z,2.38
2023-03-22T12:24:29.637Z,1.75
2023-03-22T12:27:00.127Z,1.73
2023-03-22T12:29:27.846Z,1.00
2023-03-22T12:32:04.391Z,1.00
2023-03-22T12:34:42.639Z,1.30
2023-03-22T12:37:12.842Z,4.07
2023-03-22T12:39:43.905Z,1.48
2023-03-22T12:42:19.585Z,1.33
2023-03-22T12:44:52.786Z,0.80
2023-03-22T12:47:42.419Z,1.45
2023-03-22T12:50:15.010Z,4.93
2023-03-22T12:52:56.678Z,1.40
2023-03-22T12:55:27.231Z,1.20
2023-03-22T12:57:54.887Z,2.42
2023-03-22T13:00:42.838Z,1.23
2023-03-22T13:03:17.559Z,1.52
2023-03-22T13:05:47.814Z,1.65
2023-03-22T13:08:20.045Z,1.60
2023-03-22T13:11:06.126Z,1.98
2023-03-22T13:13:34.889Z,1.00
2023-03-22T13:16:02.559Z,2.17
2023-03-22T13:18:39.016Z,2.58
2023-03-22T13:21:13.305Z,1.00
2023-03-22T13:23:57.708Z,1.23
2023-03-22T13:26:48.352Z,0.82
2023-03-22T13:29:27.030Z,1.17
2023-03-22T13:31:54.609Z,1.30
2023-03-22T13:34:33.910Z,1.80
2023-03-22T13:37:05.359Z,1.20
2023-03-22T13:39:34.660Z,1.42
2023-03-22T13:42:30.677Z,6.85
2023-03-22T13:45:02.372Z,2.78
2023-03-22T13:47:32.064Z,1.17
2023-03-22T13:50:07.309Z,0.98
2023-03-22T13:52:40.435Z,2.15
2023-03-22T13:55:27.955Z,1.85
2023-03-22T13:57:59.816Z,1.52
2023-03-22T14:00:30.311Z,0.70
2023-03-22T14:03:01.458Z,0.90
2023-03-22T14:05:34.504Z,1.23
2023-03-22T14:08:02.758Z,1.00
2023-03-22T14:10:45.535Z,1.23
2023-03-22T14:13:19.918Z,1.05
2023-03-22T14:16:20.350Z,1.25
2023-03-22T14:18:48.956Z,1.38
2023-03-22T14:21:20.760Z,0.73
